sensor_id;sensor_type;location;lat;lon;timestamp;temperature;humidity
5492;DHT22;2768;53.540;10.224;2023-07-31T00:01:19;15.30;1.00
5492;DHT22;2768;53.540;10.224;2023-07-31T00:07:14;15.30;1.00
5492;DHT22;2768;53.540;10.224;2023-07-31T00:13:07;15.40;1.00
5492;DHT22;2768;53.540;10.224;2023-07-31T00:19:01;15.50;1.00
5492;DHT22;2768;53.540;10.224;2023-07-31T00:24:56;15.50;1.00
5492;DHT22;2768;53.540;10.224;2023-07-31T00:30:50;15.40;1.00
5492;DHT22;2768;53.540;10.224;2023-07-31T00:36:43;15.30;1.00
5492;DHT22;2768;53.540;10.224;2023-07-31T00:42:38;15.40;1.00
5492;DHT22;2768;53.540;10.224;2023-07-31T00:48:33;15.30;1.00
5492;DHT22;2768;53.540;10.224;2023-07-31T00:54:26;15.40;1.00
5492;DHT22;2768;53.540;10.224;2023-07-31T01:00:21;15.30;1.00
5492;DHT22;2768;53.540;10.224;2023-07-31T01:06:17;15.30;1.00
5492;DHT22;2768;53.540;10.224;2023-07-31T01:12:15;15.30;1.00
5492;DHT22;2768;53.540;10.224;2023-07-31T01:18:10;15.30;1.00
5492;DHT22;2768;53.540;10.224;2023-07-31T01:24:19;15.40;1.00
5492;DHT22;2768;53.540;10.224;2023-07-31T01:30:16;15.40;1.00
5492;DHT22;2768;53.540;10.224;2023-07-31T01:36:10;15.40;1.00
5492;DHT22;2768;53.540;10.224;2023-07-31T01:42:05;15.40;1.00
5492;DHT22;2768;53.540;10.224;2023-07-31T01:48:01;15.40;1.00
5492;DHT22;2768;53.540;10.224;2023-07-31T01:53:54;15.20;1.00
5492;DHT22;2768;53.540;10.224;2023-07-31T01:59:48;15.30;1.00
5492;DHT22;2768;53.540;10.224;2023-07-31T02:05:45;15.30;1.00
5492;DHT22;2768;53.540;10.224;2023-07-31T02:11:38;15.30;1.00
5492;DHT22;2768;53.540;10.224;2023-07-31T02:17:31;15.30;1.00
5492;DHT22;2768;53.540;10.224;2023-07-31T02:23:26;15.30;1.00
5492;DHT22;2768;53.540;10.224;2023-07-31T02:29:20;15.30;1.00
5492;DHT22;2768;53.540;10.224;2023-07-31T02:35:13;15.40;1.00
5492;DHT22;2768;53.540;10.224;2023-07-31T02:41:09;15.40;1.00
5492;DHT22;2768;53.540;10.224;2023-07-31T02:47:03;15.40;1.00
5492;DHT22;2768;53.540;10.224;2023-07-31T02:52:58;15.50;1.00
5492;DHT22;2768;53.540;10.224;2023-07-31T02:58:53;15.50;1.00
5492;DHT22;2768;53.540;10.224;2023-07-31T03:04:47;15.50;1.00
5492;DHT22;2768;53.540;10.224;2023-07-31T03:10:40;15.50;1.00
5492;DHT22;2768;53.540;10.224;2023-07-31T03:16:35;15.40;14.20
5492;DHT22;2768;53.540;10.224;2023-07-31T03:22:29;15.50;39.40
5492;DHT22;2768;53.540;10.224;2023-07-31T03:28:22;15.50;57.20
5492;DHT22;2768;53.540;10.224;2023-07-31T03:34:17;15.40;79.60
5492;DHT22;2768;53.540;10.224;2023-07-31T03:40:11;15.40;98.30
5492;DHT22;2768;53.540;10.224;2023-07-31T03:46:05;15.50;99.90
5492;DHT22;2768;53.540;10.224;2023-07-31T03:52:00;15.50;99.90
5492;DHT22;2768;53.540;10.224;2023-07-31T03:57:53;15.50;99.90
5492;DHT22;2768;53.540;10.224;2023-07-31T04:03:46;15.50;99.90
5492;DHT22;2768;53.540;10.224;2023-07-31T04:09:41;15.50;99.90
5492;DHT22;2768;53.540;10.224;2023-07-31T04:15:35;15.50;99.90
5492;DHT22;2768;53.540;10.224;2023-07-31T04:21:28;15.50;99.90
5492;DHT22;2768;53.540;10.224;2023-07-31T04:27:22;15.50;99.90
5492;DHT22;2768;53.540;10.224;2023-07-31T04:33:16;15.40;99.90
5492;DHT22;2768;53.540;10.224;2023-07-31T04:39:09;15.40;99.90
5492;DHT22;2768;53.540;10.224;2023-07-31T04:45:05;15.40;99.90
5492;DHT22;2768;53.540;10.224;2023-07-31T04:50:58;15.40;99.90
5492;DHT22;2768;53.540;10.224;2023-07-31T04:56:52;15.50;99.90
5492;DHT22;2768;53.540;10.224;2023-07-31T05:02:46;15.50;99.90
5492;DHT22;2768;53.540;10.224;2023-07-31T05:08:40;15.40;99.90
5492;DHT22;2768;53.540;10.224;2023-07-31T05:14:33;15.40;99.90
5492;DHT22;2768;53.540;10.224;2023-07-31T05:20:28;15.50;99.90
5492;DHT22;2768;53.540;10.224;2023-07-31T05:35:08;15.50;99.90
5492;DHT22;2768;53.540;10.224;2023-07-31T05:41:01;15.50;99.90
5492;DHT22;2768;53.540;10.224;2023-07-31T05:46:54;15.40;99.90
5492;DHT22;2768;53.540;10.224;2023-07-31T05:52:49;15.50;99.90
5492;DHT22;2768;53.540;10.224;2023-07-31T05:58:42;15.40;99.90
5492;DHT22;2768;53.540;10.224;2023-07-31T06:04:35;15.40;99.90
5492;DHT22;2768;53.540;10.224;2023-07-31T06:10:30;15.40;99.90
5492;DHT22;2768;53.540;10.224;2023-07-31T06:16:25;15.50;99.90
5492;DHT22;2768;53.540;10.224;2023-07-31T06:22:19;15.50;99.90
5492;DHT22;2768;53.540;10.224;2023-07-31T06:28:14;15.60;99.90
5492;DHT22;2768;53.540;10.224;2023-07-31T06:34:07;15.50;99.90
5492;DHT22;2768;53.540;10.224;2023-07-31T06:40:01;15.60;99.90
5492;DHT22;2768;53.540;10.224;2023-07-31T06:46:04;15.60;99.90
5492;DHT22;2768;53.540;10.224;2023-07-31T06:51:58;15.60;99.90
5492;DHT22;2768;53.540;10.224;2023-07-31T06:57:53;15.60;99.90
5492;DHT22;2768;53.540;10.224;2023-07-31T07:03:47;15.70;99.90
5492;DHT22;2768;53.540;10.224;2023-07-31T07:09:42;15.70;99.90
5492;DHT22;2768;53.540;10.224;2023-07-31T07:15:37;15.80;99.90
5492;DHT22;2768;53.540;10.224;2023-07-31T07:21:32;15.70;99.90
5492;DHT22;2768;53.540;10.224;2023-07-31T07:27:25;15.80;99.90
5492;DHT22;2768;53.540;10.224;2023-07-31T07:33:19;15.80;99.90
5492;DHT22;2768;53.540;10.224;2023-07-31T07:39:14;15.80;99.90
5492;DHT22;2768;53.540;10.224;2023-07-31T07:45:08;15.90;99.90
5492;DHT22;2768;53.540;10.224;2023-07-31T07:51:01;16.00;99.90
5492;DHT22;2768;53.540;10.224;2023-07-31T07:56:56;16.00;99.90
5492;DHT22;2768;53.540;10.224;2023-07-31T08:02:50;15.90;99.90
5492;DHT22;2768;53.540;10.224;2023-07-31T08:08:44;15.90;99.90
5492;DHT22;2768;53.540;10.224;2023-07-31T08:14:40;15.90;99.90
5492;DHT22;2768;53.540;10.224;2023-07-31T08:20:34;16.00;99.90
5492;DHT22;2768;53.540;10.224;2023-07-31T08:26:28;16.10;99.90
5492;DHT22;2768;53.540;10.224;2023-07-31T08:32:22;16.20;99.90
5492;DHT22;2768;53.540;10.224;2023-07-31T08:38:16;16.20;99.90
5492;DHT22;2768;53.540;10.224;2023-07-31T08:44:10;16.20;99.90
5492;DHT22;2768;53.540;10.224;2023-07-31T08:50:07;16.20;99.90
5492;DHT22;2768;53.540;10.224;2023-07-31T08:56:02;16.30;99.90
5492;DHT22;2768;53.540;10.224;2023-07-31T09:01:58;16.30;99.90
5492;DHT22;2768;53.540;10.224;2023-07-31T09:07:55;16.40;99.90
5492;DHT22;2768;53.540;10.224;2023-07-31T09:13:50;16.50;99.90
5492;DHT22;2768;53.540;10.224;2023-07-31T09:19:43;16.40;99.90
5492;DHT22;2768;53.540;10.224;2023-07-31T09:25:39;16.40;99.90
5492;DHT22;2768;53.540;10.224;2023-07-31T09:31:39;16.50;99.90
5492;DHT22;2768;53.540;10.224;2023-07-31T09:37:34;16.60;99.90
5492;DHT22;2768;53.540;10.224;2023-07-31T09:43:29;16.60;99.90
5492;DHT22;2768;53.540;10.224;2023-07-31T09:49:25;16.60;99.90
5492;DHT22;2768;53.540;10.224;2023-07-31T09:55:19;16.50;99.90
5492;DHT22;2768;53.540;10.224;2023-07-31T10:01:16;16.60;99.90
5492;DHT22;2768;53.540;10.224;2023-07-31T10:07:09;16.70;99.90
5492;DHT22;2768;53.540;10.224;2023-07-31T10:13:04;16.70;99.90
5492;DHT22;2768;53.540;10.224;2023-07-31T10:18:59;16.70;99.90
5492;DHT22;2768;53.540;10.224;2023-07-31T10:24:55;16.70;99.90
5492;DHT22;2768;53.540;10.224;2023-07-31T10:30:51;16.60;99.90
5492;DHT22;2768;53.540;10.224;2023-07-31T10:36:46;16.60;99.90
5492;DHT22;2768;53.540;10.224;2023-07-31T10:42:46;16.60;99.90
5492;DHT22;2768;53.540;10.224;2023-07-31T10:48:41;16.40;99.90
5492;DHT22;2768;53.540;10.224;2023-07-31T10:54:36;16.40;99.90
5492;DHT22;2768;53.540;10.224;2023-07-31T11:00:32;16.40;99.90
5492;DHT22;2768;53.540;10.224;2023-07-31T11:06:29;16.50;99.90
5492;DHT22;2768;53.540;10.224;2023-07-31T11:12:24;16.70;99.90
5492;DHT22;2768;53.540;10.224;2023-07-31T11:18:18;16.70;99.90
5492;DHT22;2768;53.540;10.224;2023-07-31T11:24:12;16.70;99.90
5492;DHT22;2768;53.540;10.224;2023-07-31T11:30:08;16.80;99.90
5492;DHT22;2768;53.540;10.224;2023-07-31T11:36:01;16.90;99.90
5492;DHT22;2768;53.540;10.224;2023-07-31T11:41:58;16.90;99.90
5492;DHT22;2768;53.540;10.224;2023-07-31T11:47:54;16.90;99.90
5492;DHT22;2768;53.540;10.224;2023-07-31T11:53:49;16.90;99.90
5492;DHT22;2768;53.540;10.224;2023-07-31T11:59:44;16.90;99.90
5492;DHT22;2768;53.540;10.224;2023-07-31T12:05:39;16.90;99.90
5492;DHT22;2768;53.540;10.224;2023-07-31T12:11:42;16.80;99.90
5492;DHT22;2768;53.540;10.224;2023-07-31T12:17:36;16.80;99.90
5492;DHT22;2768;53.540;10.224;2023-07-31T12:23:32;16.80;99.90
5492;DHT22;2768;53.540;10.224;2023-07-31T12:29:34;16.90;99.90
5492;DHT22;2768;53.540;10.224;2023-07-31T12:35:36;17.00;99.90
5492;DHT22;2768;53.540;10.224;2023-07-31T12:41:31;17.00;99.90
5492;DHT22;2768;53.540;10.224;2023-07-31T12:47:25;17.00;99.90
5492;DHT22;2768;53.540;10.224;2023-07-31T12:53:19;17.00;99.90
5492;DHT22;2768;53.540;10.224;2023-07-31T12:59:13;17.10;99.90
5492;DHT22;2768;53.540;10.224;2023-07-31T13:05:07;17.10;99.90
5492;DHT22;2768;53.540;10.224;2023-07-31T13:11:00;17.10;99.90
5492;DHT22;2768;53.540;10.224;2023-07-31T13:16:55;17.20;99.90
5492;DHT22;2768;53.540;10.224;2023-07-31T13:22:49;17.20;99.90
5492;DHT22;2768;53.540;10.224;2023-07-31T13:28:42;17.20;99.90
5492;DHT22;2768;53.540;10.224;2023-07-31T13:34:37;17.20;99.90
5492;DHT22;2768;53.540;10.224;2023-07-31T13:40:30;17.20;99.90
5492;DHT22;2768;53.540;10.224;2023-07-31T13:46:24;17.20;99.90
5492;DHT22;2768;53.540;10.224;2023-07-31T13:52:19;17.20;99.90
5492;DHT22;2768;53.540;10.224;2023-07-31T13:58:12;17.30;99.90
5492;DHT22;2768;53.540;10.224;2023-07-31T14:04:05;17.20;99.90
5492;DHT22;2768;53.540;10.224;2023-07-31T14:10:00;17.30;99.90
5492;DHT22;2768;53.540;10.224;2023-07-31T14:15:55;17.30;99.90
5492;DHT22;2768;53.540;10.224;2023-07-31T14:21:49;17.40;99.90
5492;DHT22;2768;53.540;10.224;2023-07-31T14:28:02;17.40;99.90
5492;DHT22;2768;53.540;10.224;2023-07-31T14:33:55;17.40;99.90
5492;DHT22;2768;53.540;10.224;2023-07-31T14:39:49;17.40;99.90
5492;DHT22;2768;53.540;10.224;2023-07-31T14:45:44;17.30;99.90
5492;DHT22;2768;53.540;10.224;2023-07-31T14:51:38;17.30;99.90
5492;DHT22;2768;53.540;10.224;2023-07-31T14:57:36;17.30;99.90
5492;DHT22;2768;53.540;10.224;2023-07-31T15:03:30;17.30;99.90
5492;DHT22;2768;53.540;10.224;2023-07-31T15:09:24;17.30;99.90
5492;DHT22;2768;53.540;10.224;2023-07-31T15:15:17;17.30;99.90
5492;DHT22;2768;53.540;10.224;2023-07-31T15:21:11;17.30;99.90
5492;DHT22;2768;53.540;10.224;2023-07-31T15:27:06;17.40;99.90
5492;DHT22;2768;53.540;10.224;2023-07-31T15:33:01;17.30;99.90
5492;DHT22;2768;53.540;10.224;2023-07-31T15:38:56;17.40;99.90
5492;DHT22;2768;53.540;10.224;2023-07-31T15:44:50;17.40;99.90
5492;DHT22;2768;53.540;10.224;2023-07-31T15:50:44;17.50;99.90
5492;DHT22;2768;53.540;10.224;2023-07-31T15:56:38;17.40;99.90
5492;DHT22;2768;53.540;10.224;2023-07-31T16:02:32;17.40;99.90
5492;DHT22;2768;53.540;10.224;2023-07-31T16:08:27;17.30;99.90
5492;DHT22;2768;53.540;10.224;2023-07-31T16:14:24;17.30;99.90
5492;DHT22;2768;53.540;10.224;2023-07-31T16:20:17;17.20;99.90
5492;DHT22;2768;53.540;10.224;2023-07-31T16:26:11;17.20;99.90
5492;DHT22;2768;53.540;10.224;2023-07-31T16:32:07;17.10;99.90
5492;DHT22;2768;53.540;10.224;2023-07-31T16:38:20;17.20;99.90
5492;DHT22;2768;53.540;10.224;2023-07-31T16:44:14;17.20;99.90
5492;DHT22;2768;53.540;10.224;2023-07-31T16:50:10;17.20;99.90
5492;DHT22;2768;53.540;10.224;2023-07-31T16:56:03;17.10;99.90
5492;DHT22;2768;53.540;10.224;2023-07-31T17:01:57;17.20;99.90
5492;DHT22;2768;53.540;10.224;2023-07-31T17:07:53;17.20;99.90
5492;DHT22;2768;53.540;10.224;2023-07-31T17:13:46;17.10;99.90
5492;DHT22;2768;53.540;10.224;2023-07-31T17:19:39;17.20;99.90
5492;DHT22;2768;53.540;10.224;2023-07-31T17:25:34;17.10;99.90
5492;DHT22;2768;53.540;10.224;2023-07-31T17:31:27;17.20;99.90
5492;DHT22;2768;53.540;10.224;2023-07-31T17:37:22;17.20;99.90
5492;DHT22;2768;53.540;10.224;2023-07-31T17:43:17;17.30;99.90
5492;DHT22;2768;53.540;10.224;2023-07-31T17:49:10;17.30;99.90
5492;DHT22;2768;53.540;10.224;2023-07-31T17:55:03;17.40;99.90
5492;DHT22;2768;53.540;10.224;2023-07-31T18:00:59;17.30;99.90
5492;DHT22;2768;53.540;10.224;2023-07-31T18:06:52;17.40;99.90
5492;DHT22;2768;53.540;10.224;2023-07-31T18:12:46;17.40;99.90
5492;DHT22;2768;53.540;10.224;2023-07-31T18:18:41;17.30;99.90
5492;DHT22;2768;53.540;10.224;2023-07-31T18:24:34;17.30;99.90
5492;DHT22;2768;53.540;10.224;2023-07-31T18:30:29;17.30;99.90
5492;DHT22;2768;53.540;10.224;2023-07-31T18:36:24;17.20;99.90
5492;DHT22;2768;53.540;10.224;2023-07-31T18:42:18;17.20;99.90
5492;DHT22;2768;53.540;10.224;2023-07-31T18:48:12;17.20;99.90
5492;DHT22;2768;53.540;10.224;2023-07-31T18:54:08;17.20;99.90
5492;DHT22;2768;53.540;10.224;2023-07-31T19:00:05;17.20;99.90
5492;DHT22;2768;53.540;10.224;2023-07-31T19:06:00;17.20;99.90
5492;DHT22;2768;53.540;10.224;2023-07-31T19:11:56;17.20;99.90
5492;DHT22;2768;53.540;10.224;2023-07-31T19:17:50;17.20;99.90
5492;DHT22;2768;53.540;10.224;2023-07-31T19:23:43;17.20;99.90
5492;DHT22;2768;53.540;10.224;2023-07-31T19:29:38;17.20;99.90
5492;DHT22;2768;53.540;10.224;2023-07-31T19:35:32;17.20;99.90
5492;DHT22;2768;53.540;10.224;2023-07-31T19:41:26;17.20;99.90
5492;DHT22;2768;53.540;10.224;2023-07-31T19:47:21;17.20;99.90
5492;DHT22;2768;53.540;10.224;2023-07-31T19:53:14;17.10;99.90
5492;DHT22;2768;53.540;10.224;2023-07-31T19:59:08;17.20;99.90
5492;DHT22;2768;53.540;10.224;2023-07-31T20:07:34;17.20;99.90
5492;DHT22;2768;53.540;10.224;2023-07-31T20:13:27;17.10;99.90
5492;DHT22;2768;53.540;10.224;2023-07-31T20:19:21;17.10;99.90
5492;DHT22;2768;53.540;10.224;2023-07-31T20:25:15;17.10;99.90
5492;DHT22;2768;53.540;10.224;2023-07-31T20:31:09;17.10;99.90
5492;DHT22;2768;53.540;10.224;2023-07-31T20:37:03;17.10;99.90
5492;DHT22;2768;53.540;10.224;2023-07-31T20:42:58;17.10;99.90
5492;DHT22;2768;53.540;10.224;2023-07-31T20:48:51;17.10;99.90
5492;DHT22;2768;53.540;10.224;2023-07-31T20:54:45;17.00;99.90
5492;DHT22;2768;53.540;10.224;2023-07-31T21:00:42;17.00;99.90
5492;DHT22;2768;53.540;10.224;2023-07-31T21:06:36;17.00;99.90
5492;DHT22;2768;53.540;10.224;2023-07-31T21:12:30;17.00;99.90
5492;DHT22;2768;53.540;10.224;2023-07-31T21:18:25;16.90;99.90
5492;DHT22;2768;53.540;10.224;2023-07-31T21:24:18;16.80;99.90
5492;DHT22;2768;53.540;10.224;2023-07-31T21:30:11;16.70;99.90
5492;DHT22;2768;53.540;10.224;2023-07-31T21:36:06;16.60;99.90
5492;DHT22;2768;53.540;10.224;2023-07-31T21:42:00;16.60;99.90
5492;DHT22;2768;53.540;10.224;2023-07-31T21:47:53;16.60;99.90
5492;DHT22;2768;53.540;10.224;2023-07-31T21:53:48;16.60;99.90
5492;DHT22;2768;53.540;10.224;2023-07-31T21:59:41;16.50;99.90
5492;DHT22;2768;53.540;10.224;2023-07-31T22:05:34;16.50;99.90
5492;DHT22;2768;53.540;10.224;2023-07-31T22:11:29;16.50;99.90
5492;DHT22;2768;53.540;10.224;2023-07-31T22:17:22;16.50;99.90
5492;DHT22;2768;53.540;10.224;2023-07-31T22:23:16;16.60;99.90
5492;DHT22;2768;53.540;10.224;2023-07-31T22:29:11;16.50;99.90
5492;DHT22;2768;53.540;10.224;2023-07-31T22:35:05;16.50;99.90
5492;DHT22;2768;53.540;10.224;2023-07-31T22:40:58;16.50;99.90
5492;DHT22;2768;53.540;10.224;2023-07-31T22:46:53;16.60;99.90
5492;DHT22;2768;53.540;10.224;2023-07-31T22:52:46;16.60;99.90
5492;DHT22;2768;53.540;10.224;2023-07-31T22:58:40;16.50;99.90
5492;DHT22;2768;53.540;10.224;2023-07-31T23:04:37;16.60;99.90
5492;DHT22;2768;53.540;10.224;2023-07-31T23:10:31;16.60;99.90
5492;DHT22;2768;53.540;10.224;2023-07-31T23:16:24;16.50;99.90
5492;DHT22;2768;53.540;10.224;2023-07-31T23:22:19;16.60;99.90
5492;DHT22;2768;53.540;10.224;2023-07-31T23:28:12;16.60;99.90
5492;DHT22;2768;53.540;10.224;2023-07-31T23:34:06;16.60;99.90
5492;DHT22;2768;53.540;10.224;2023-07-31T23:40:01;16.60;99.90
5492;DHT22;2768;53.540;10.224;2023-07-31T23:45:54;16.60;99.90
5492;DHT22;2768;53.540;10.224;2023-07-31T23:51:48;16.60;99.90
5492;DHT22;2768;53.540;10.224;2023-07-31T23:57:43;16.50;99.90
